sensor_id;sensor_type;location;lat;lon;timestamp;temperature;humidity
981;DHT22;479;53.514;9.994;2023-02-01T00:02:03;5.10;99.90
981;DHT22;479;53.514;9.994;2023-02-01T00:04:30;5.20;99.90
981;DHT22;479;53.514;9.994;2023-02-01T00:06:57;5.30;99.90
981;DHT22;479;53.514;9.994;2023-02-01T00:09:25;5.40;99.90
981;DHT22;479;53.514;9.994;2023-02-01T00:11:52;5.40;99.90
981;DHT22;479;53.514;9.994;2023-02-01T00:14:19;5.50;99.90
981;DHT22;479;53.514;9.994;2023-02-01T00:16:45;5.50;99.90
981;DHT22;479;53.514;9.994;2023-02-01T00:19:14;5.50;99.90
981;DHT22;479;53.514;9.994;2023-02-01T00:21:41;5.60;99.90
981;DHT22;479;53.514;9.994;2023-02-01T00:24:10;5.60;99.90
981;DHT22;479;53.514;9.994;2023-02-01T00:26:40;5.60;99.90
981;DHT22;479;53.514;9.994;2023-02-01T00:29:09;5.70;99.90
981;DHT22;479;53.514;9.994;2023-02-01T00:31:37;5.70;99.90
981;DHT22;479;53.514;9.994;2023-02-01T00:34:04;5.70;99.90
981;DHT22;479;53.514;9.994;2023-02-01T00:36:31;5.70;99.90
981;DHT22;479;53.514;9.994;2023-02-01T00:38:58;5.80;99.90
981;DHT22;479;53.514;9.994;2023-02-01T00:41:25;5.80;99.90
981;DHT22;479;53.514;9.994;2023-02-01T00:43:54;5.90;99.90
981;DHT22;479;53.514;9.994;2023-02-01T00:46:21;5.90;99.90
981;DHT22;479;53.514;9.994;2023-02-01T00:48:48;5.90;99.90
981;DHT22;479;53.514;9.994;2023-02-01T00:51:19;5.90;99.90
981;DHT22;479;53.514;9.994;2023-02-01T00:53:46;5.90;99.90
981;DHT22;479;53.514;9.994;2023-02-01T00:56:13;6.00;99.90
981;DHT22;479;53.514;9.994;2023-02-01T00:58:40;6.00;99.90
981;DHT22;479;53.514;9.994;2023-02-01T01:01:10;6.00;99.90
981;DHT22;479;53.514;9.994;2023-02-01T01:03:39;6.00;99.90
981;DHT22;479;53.514;9.994;2023-02-01T01:06:09;6.00;99.90
981;DHT22;479;53.514;9.994;2023-02-01T01:08:36;6.00;99.90
981;DHT22;479;53.514;9.994;2023-02-01T01:11:07;6.10;99.90
981;DHT22;479;53.514;9.994;2023-02-01T01:13:34;6.10;99.90
981;DHT22;479;53.514;9.994;2023-02-01T01:16:02;6.10;99.90
981;DHT22;479;53.514;9.994;2023-02-01T01:18:31;6.10;99.90
981;DHT22;479;53.514;9.994;2023-02-01T01:20:59;6.10;99.90
981;DHT22;479;53.514;9.994;2023-02-01T01:23:26;6.10;99.90
981;DHT22;479;53.514;9.994;2023-02-01T01:25:54;6.10;99.90
981;DHT22;479;53.514;9.994;2023-02-01T01:28:21;6.10;99.90
981;DHT22;479;53.514;9.994;2023-02-01T01:30:48;6.10;99.90
981;DHT22;479;53.514;9.994;2023-02-01T01:33:15;6.20;99.90
981;DHT22;479;53.514;9.994;2023-02-01T01:35:43;6.10;99.90
981;DHT22;479;53.514;9.994;2023-02-01T01:38:11;6.20;99.90
981;DHT22;479;53.514;9.994;2023-02-01T01:40:38;6.20;99.90
981;DHT22;479;53.514;9.994;2023-02-01T01:43:13;6.10;99.90
981;DHT22;479;53.514;9.994;2023-02-01T01:45:40;6.20;99.90
981;DHT22;479;53.514;9.994;2023-02-01T01:48:12;6.20;99.90
981;DHT22;479;53.514;9.994;2023-02-01T01:50:45;6.20;99.90
981;DHT22;479;53.514;9.994;2023-02-01T01:53:20;6.20;99.90
981;DHT22;479;53.514;9.994;2023-02-01T01:55:50;6.20;99.90
981;DHT22;479;53.514;9.994;2023-02-01T01:58:19;6.10;99.90
981;DHT22;479;53.514;9.994;2023-02-01T02:00:48;6.10;99.90
981;DHT22;479;53.514;9.994;2023-02-01T02:03:18;6.10;99.90
981;DHT22;479;53.514;9.994;2023-02-01T02:05:49;6.10;99.90
981;DHT22;479;53.514;9.994;2023-02-01T02:08:17;6.10;99.90
981;DHT22;479;53.514;9.994;2023-02-01T02:10:46;6.20;99.90
981;DHT22;479;53.514;9.994;2023-02-01T02:13:32;6.10;99.90
981;DHT22;479;53.514;9.994;2023-02-01T02:16:33;6.10;99.90
981;DHT22;479;53.514;9.994;2023-02-01T02:19:32;6.10;99.90
981;DHT22;479;53.514;9.994;2023-02-01T02:22:22;6.10;99.90
981;DHT22;479;53.514;9.994;2023-02-01T02:25:20;6.10;99.90
981;DHT22;479;53.514;9.994;2023-02-01T02:27:51;6.10;99.90
981;DHT22;479;53.514;9.994;2023-02-01T02:30:42;6.00;99.90
981;DHT22;479;53.514;9.994;2023-02-01T02:33:42;5.90;99.90
981;DHT22;479;53.514;9.994;2023-02-01T02:36:17;5.90;99.90
981;DHT22;479;53.514;9.994;2023-02-01T02:38:53;5.90;99.90
981;DHT22;479;53.514;9.994;2023-02-01T02:41:28;5.80;99.90
981;DHT22;479;53.514;9.994;2023-02-01T02:44:21;5.90;99.90
981;DHT22;479;53.514;9.994;2023-02-01T02:47:15;5.90;99.90
981;DHT22;479;53.514;9.994;2023-02-01T02:50:09;5.90;99.90
981;DHT22;479;53.514;9.994;2023-02-01T02:52:59;5.90;99.90
981;DHT22;479;53.514;9.994;2023-02-01T02:55:47;5.90;99.90
981;DHT22;479;53.514;9.994;2023-02-01T02:58:18;5.90;99.90
981;DHT22;479;53.514;9.994;2023-02-01T03:01:04;5.80;99.90
981;DHT22;479;53.514;9.994;2023-02-01T03:03:49;5.80;99.90
981;DHT22;479;53.514;9.994;2023-02-01T03:06:36;5.80;99.90
981;DHT22;479;53.514;9.994;2023-02-01T03:09:08;5.80;99.90
981;DHT22;479;53.514;9.994;2023-02-01T03:11:37;5.80;99.90
981;DHT22;479;53.514;9.994;2023-02-01T03:14:33;5.80;99.90
981;DHT22;479;53.514;9.994;2023-02-01T03:17:08;5.80;99.90
981;DHT22;479;53.514;9.994;2023-02-01T03:19:39;5.80;99.90
981;DHT22;479;53.514;9.994;2023-02-01T03:22:14;5.80;99.90
981;DHT22;479;53.514;9.994;2023-02-01T03:24:44;5.70;99.90
981;DHT22;479;53.514;9.994;2023-02-01T03:27:16;5.70;99.90
981;DHT22;479;53.514;9.994;2023-02-01T03:29:48;5.60;99.90
981;DHT22;479;53.514;9.994;2023-02-01T03:32:16;5.60;99.90
981;DHT22;479;53.514;9.994;2023-02-01T03:34:44;5.40;99.90
981;DHT22;479;53.514;9.994;2023-02-01T03:37:16;5.40;99.90
981;DHT22;479;53.514;9.994;2023-02-01T03:39:53;5.30;99.90
981;DHT22;479;53.514;9.994;2023-02-01T03:42:28;5.20;99.90
981;DHT22;479;53.514;9.994;2023-02-01T03:45:03;5.10;99.90
981;DHT22;479;53.514;9.994;2023-02-01T03:47:35;5.10;99.90
981;DHT22;479;53.514;9.994;2023-02-01T03:50:05;5.00;99.90
981;DHT22;479;53.514;9.994;2023-02-01T03:52:38;5.00;99.90
981;DHT22;479;53.514;9.994;2023-02-01T03:55:08;4.90;99.90
981;DHT22;479;53.514;9.994;2023-02-01T03:57:38;4.90;99.90
981;DHT22;479;53.514;9.994;2023-02-01T04:00:07;5.00;99.90
981;DHT22;479;53.514;9.994;2023-02-01T04:02:40;5.00;99.90
981;DHT22;479;53.514;9.994;2023-02-01T04:05:08;5.10;99.90
981;DHT22;479;53.514;9.994;2023-02-01T04:07:37;5.10;99.90
981;DHT22;479;53.514;9.994;2023-02-01T04:10:05;5.10;99.90
981;DHT22;479;53.514;9.994;2023-02-01T04:12:32;5.10;99.90
981;DHT22;479;53.514;9.994;2023-02-01T04:14:59;5.20;99.90
981;DHT22;479;53.514;9.994;2023-02-01T04:17:25;5.20;99.90
981;DHT22;479;53.514;9.994;2023-02-01T04:19:52;5.10;99.90
981;DHT22;479;53.514;9.994;2023-02-01T04:22:19;5.20;99.90
981;DHT22;479;53.514;9.994;2023-02-01T04:24:47;5.20;99.90
981;DHT22;479;53.514;9.994;2023-02-01T04:27:14;5.20;99.90
981;DHT22;479;53.514;9.994;2023-02-01T04:29:41;5.10;99.90
981;DHT22;479;53.514;9.994;2023-02-01T04:32:08;5.10;99.90
981;DHT22;479;53.514;9.994;2023-02-01T04:34:35;5.20;99.90
981;DHT22;479;53.514;9.994;2023-02-01T04:37:02;5.20;99.90
981;DHT22;479;53.514;9.994;2023-02-01T04:39:29;5.30;99.90
981;DHT22;479;53.514;9.994;2023-02-01T04:41:57;5.30;99.90
981;DHT22;479;53.514;9.994;2023-02-01T04:44:24;5.30;99.90
981;DHT22;479;53.514;9.994;2023-02-01T04:46:51;5.20;99.90
981;DHT22;479;53.514;9.994;2023-02-01T04:49:17;5.20;99.90
981;DHT22;479;53.514;9.994;2023-02-01T04:51:45;5.20;99.90
981;DHT22;479;53.514;9.994;2023-02-01T04:54:12;5.20;99.90
981;DHT22;479;53.514;9.994;2023-02-01T04:56:39;5.10;99.90
981;DHT22;479;53.514;9.994;2023-02-01T04:59:11;5.10;99.90
981;DHT22;479;53.514;9.994;2023-02-01T05:01:38;5.10;99.90
981;DHT22;479;53.514;9.994;2023-02-01T05:04:05;5.10;99.90
981;DHT22;479;53.514;9.994;2023-02-01T05:06:32;5.10;99.90
981;DHT22;479;53.514;9.994;2023-02-01T05:08:59;5.00;99.90
981;DHT22;479;53.514;9.994;2023-02-01T05:11:26;4.90;99.90
981;DHT22;479;53.514;9.994;2023-02-01T05:14:11;4.80;99.90
981;DHT22;479;53.514;9.994;2023-02-01T05:16:38;4.60;99.90
981;DHT22;479;53.514;9.994;2023-02-01T05:19:05;4.50;99.90
981;DHT22;479;53.514;9.994;2023-02-01T05:21:32;4.40;99.90
981;DHT22;479;53.514;9.994;2023-02-01T05:23:59;4.20;99.90
981;DHT22;479;53.514;9.994;2023-02-01T05:26:40;4.10;99.90
981;DHT22;479;53.514;9.994;2023-02-01T05:29:09;3.80;99.90
981;DHT22;479;53.514;9.994;2023-02-01T05:31:38;3.80;99.90
981;DHT22;479;53.514;9.994;2023-02-01T05:34:05;3.80;99.90
981;DHT22;479;53.514;9.994;2023-02-01T05:36:33;3.80;99.90
981;DHT22;479;53.514;9.994;2023-02-01T05:39:00;3.90;99.90
981;DHT22;479;53.514;9.994;2023-02-01T05:41:27;3.90;99.90
981;DHT22;479;53.514;9.994;2023-02-01T05:43:54;3.90;99.90
981;DHT22;479;53.514;9.994;2023-02-01T05:46:21;3.90;99.90
981;DHT22;479;53.514;9.994;2023-02-01T05:48:49;3.80;99.90
981;DHT22;479;53.514;9.994;2023-02-01T05:51:16;3.80;99.90
981;DHT22;479;53.514;9.994;2023-02-01T05:53:43;3.70;99.90
981;DHT22;479;53.514;9.994;2023-02-01T05:56:09;3.70;99.90
981;DHT22;479;53.514;9.994;2023-02-01T05:58:36;3.70;99.90
981;DHT22;479;53.514;9.994;2023-02-01T06:01:04;3.60;99.90
981;DHT22;479;53.514;9.994;2023-02-01T06:03:31;3.70;99.90
981;DHT22;479;53.514;9.994;2023-02-01T06:05:59;3.70;99.90
981;DHT22;479;53.514;9.994;2023-02-01T06:08:26;3.70;99.90
981;DHT22;479;53.514;9.994;2023-02-01T06:10:57;3.70;99.90
981;DHT22;479;53.514;9.994;2023-02-01T06:13:24;3.70;99.90
981;DHT22;479;53.514;9.994;2023-02-01T06:15:51;3.80;99.90
981;DHT22;479;53.514;9.994;2023-02-01T06:18:18;3.80;99.90
981;DHT22;479;53.514;9.994;2023-02-01T06:20:52;3.80;99.90
981;DHT22;479;53.514;9.994;2023-02-01T06:23:20;3.90;99.90
981;DHT22;479;53.514;9.994;2023-02-01T06:25:50;4.00;99.90
981;DHT22;479;53.514;9.994;2023-02-01T06:28:17;4.00;99.90
981;DHT22;479;53.514;9.994;2023-02-01T06:30:44;4.00;99.90
981;DHT22;479;53.514;9.994;2023-02-01T06:33:13;4.00;99.90
981;DHT22;479;53.514;9.994;2023-02-01T06:35:41;4.10;99.90
981;DHT22;479;53.514;9.994;2023-02-01T06:38:09;4.10;99.90
981;DHT22;479;53.514;9.994;2023-02-01T06:40:37;4.20;99.90
981;DHT22;479;53.514;9.994;2023-02-01T06:43:04;4.30;99.90
981;DHT22;479;53.514;9.994;2023-02-01T06:45:31;4.30;99.90
981;DHT22;479;53.514;9.994;2023-02-01T06:47:59;4.30;99.90
981;DHT22;479;53.514;9.994;2023-02-01T06:50:26;4.40;99.90
981;DHT22;479;53.514;9.994;2023-02-01T06:52:53;4.40;99.90
981;DHT22;479;53.514;9.994;2023-02-01T06:55:19;4.50;99.90
981;DHT22;479;53.514;9.994;2023-02-01T06:57:48;4.60;99.90
981;DHT22;479;53.514;9.994;2023-02-01T07:00:19;4.60;99.90
981;DHT22;479;53.514;9.994;2023-02-01T07:02:46;4.60;99.90
981;DHT22;479;53.514;9.994;2023-02-01T07:05:13;4.60;99.90
981;DHT22;479;53.514;9.994;2023-02-01T07:07:40;4.70;99.90
981;DHT22;479;53.514;9.994;2023-02-01T07:10:08;4.70;99.90
981;DHT22;479;53.514;9.994;2023-02-01T07:12:35;4.80;99.90
981;DHT22;479;53.514;9.994;2023-02-01T07:15:04;4.90;99.90
981;DHT22;479;53.514;9.994;2023-02-01T07:17:32;4.90;99.90
981;DHT22;479;53.514;9.994;2023-02-01T07:19:58;4.90;99.90
981;DHT22;479;53.514;9.994;2023-02-01T07:22:27;4.90;99.90
981;DHT22;479;53.514;9.994;2023-02-01T07:24:54;4.90;99.90
981;DHT22;479;53.514;9.994;2023-02-01T07:27:21;4.90;99.90
981;DHT22;479;53.514;9.994;2023-02-01T07:29:50;4.90;99.90
981;DHT22;479;53.514;9.994;2023-02-01T07:32:19;5.00;99.90
981;DHT22;479;53.514;9.994;2023-02-01T07:34:46;5.00;99.90
981;DHT22;479;53.514;9.994;2023-02-01T07:37:12;5.10;99.90
981;DHT22;479;53.514;9.994;2023-02-01T07:39:39;5.10;99.90
981;DHT22;479;53.514;9.994;2023-02-01T07:42:06;5.20;99.90
981;DHT22;479;53.514;9.994;2023-02-01T07:44:33;5.30;99.90
981;DHT22;479;53.514;9.994;2023-02-01T07:47:00;5.30;99.90
981;DHT22;479;53.514;9.994;2023-02-01T07:49:28;5.40;99.90
981;DHT22;479;53.514;9.994;2023-02-01T07:51:55;5.40;99.90
981;DHT22;479;53.514;9.994;2023-02-01T07:54:24;5.50;99.90
981;DHT22;479;53.514;9.994;2023-02-01T07:56:50;5.50;99.90
981;DHT22;479;53.514;9.994;2023-02-01T07:59:17;5.60;99.90
981;DHT22;479;53.514;9.994;2023-02-01T08:01:44;5.60;99.90
981;DHT22;479;53.514;9.994;2023-02-01T08:04:12;5.60;99.90
981;DHT22;479;53.514;9.994;2023-02-01T08:06:40;5.70;99.90
981;DHT22;479;53.514;9.994;2023-02-01T08:09:07;5.80;99.90
981;DHT22;479;53.514;9.994;2023-02-01T08:11:36;5.80;99.90
981;DHT22;479;53.514;9.994;2023-02-01T08:14:04;5.80;99.90
981;DHT22;479;53.514;9.994;2023-02-01T08:16:32;5.80;99.90
981;DHT22;479;53.514;9.994;2023-02-01T08:19:00;5.80;99.90
981;DHT22;479;53.514;9.994;2023-02-01T08:21:28;5.80;99.90
981;DHT22;479;53.514;9.994;2023-02-01T08:24:04;5.80;99.90
981;DHT22;479;53.514;9.994;2023-02-01T08:26:31;6.00;99.90
981;DHT22;479;53.514;9.994;2023-02-01T08:29:00;6.00;99.90
981;DHT22;479;53.514;9.994;2023-02-01T08:31:29;6.00;99.90
981;DHT22;479;53.514;9.994;2023-02-01T08:33:58;6.10;99.90
981;DHT22;479;53.514;9.994;2023-02-01T08:36:26;6.50;99.90
981;DHT22;479;53.514;9.994;2023-02-01T08:38:54;6.90;99.90
981;DHT22;479;53.514;9.994;2023-02-01T08:41:24;7.00;99.90
981;DHT22;479;53.514;9.994;2023-02-01T08:43:51;7.00;99.90
981;DHT22;479;53.514;9.994;2023-02-01T08:46:19;6.80;99.90
981;DHT22;479;53.514;9.994;2023-02-01T08:48:47;6.60;99.90
981;DHT22;479;53.514;9.994;2023-02-01T08:51:16;6.50;99.90
981;DHT22;479;53.514;9.994;2023-02-01T08:53:44;6.50;99.90
981;DHT22;479;53.514;9.994;2023-02-01T08:56:12;6.80;99.90
981;DHT22;479;53.514;9.994;2023-02-01T08:58:40;7.00;99.90
981;DHT22;479;53.514;9.994;2023-02-01T09:01:08;7.00;99.90
981;DHT22;479;53.514;9.994;2023-02-01T09:03:36;6.90;99.90
981;DHT22;479;53.514;9.994;2023-02-01T09:06:04;7.10;99.90
981;DHT22;479;53.514;9.994;2023-02-01T09:08:31;7.20;99.90
981;DHT22;479;53.514;9.994;2023-02-01T09:10:59;7.20;99.90
981;DHT22;479;53.514;9.994;2023-02-01T09:13:26;7.30;99.90
981;DHT22;479;53.514;9.994;2023-02-01T09:15:55;7.00;99.90
981;DHT22;479;53.514;9.994;2023-02-01T09:18:22;7.00;99.90
981;DHT22;479;53.514;9.994;2023-02-01T09:20:48;7.20;99.90
981;DHT22;479;53.514;9.994;2023-02-01T09:23:15;7.30;99.90
981;DHT22;479;53.514;9.994;2023-02-01T09:25:42;7.20;99.90
981;DHT22;479;53.514;9.994;2023-02-01T09:28:09;7.10;99.90
981;DHT22;479;53.514;9.994;2023-02-01T09:30:38;6.90;99.90
981;DHT22;479;53.514;9.994;2023-02-01T09:33:07;6.70;99.90
981;DHT22;479;53.514;9.994;2023-02-01T09:35:33;6.60;99.90
981;DHT22;479;53.514;9.994;2023-02-01T09:38:00;6.50;99.90
981;DHT22;479;53.514;9.994;2023-02-01T09:40:27;6.60;99.90
981;DHT22;479;53.514;9.994;2023-02-01T09:43:09;6.60;99.90
981;DHT22;479;53.514;9.994;2023-02-01T09:45:46;6.60;99.90
981;DHT22;479;53.514;9.994;2023-02-01T09:48:20;6.90;99.90
981;DHT22;479;53.514;9.994;2023-02-01T09:50:52;7.00;99.90
981;DHT22;479;53.514;9.994;2023-02-01T09:53:25;7.00;99.90
981;DHT22;479;53.514;9.994;2023-02-01T09:55:55;7.10;99.90
981;DHT22;479;53.514;9.994;2023-02-01T09:58:32;7.20;99.90
981;DHT22;479;53.514;9.994;2023-02-01T10:01:00;7.40;99.90
981;DHT22;479;53.514;9.994;2023-02-01T10:03:31;7.40;99.90
981;DHT22;479;53.514;9.994;2023-02-01T10:06:26;7.40;99.90
981;DHT22;479;53.514;9.994;2023-02-01T10:09:24;7.60;99.90
981;DHT22;479;53.514;9.994;2023-02-01T10:12:19;7.50;99.90
981;DHT22;479;53.514;9.994;2023-02-01T10:14:57;7.50;99.90
981;DHT22;479;53.514;9.994;2023-02-01T10:17:34;7.40;99.90
981;DHT22;479;53.514;9.994;2023-02-01T10:20:10;7.30;99.90
981;DHT22;479;53.514;9.994;2023-02-01T10:22:41;7.20;99.90
981;DHT22;479;53.514;9.994;2023-02-01T10:25:16;7.20;99.90
981;DHT22;479;53.514;9.994;2023-02-01T10:27:44;7.20;99.90
981;DHT22;479;53.514;9.994;2023-02-01T10:30:19;7.20;99.90
981;DHT22;479;53.514;9.994;2023-02-01T10:32:47;7.10;99.90
981;DHT22;479;53.514;9.994;2023-02-01T10:35:18;7.10;99.90
981;DHT22;479;53.514;9.994;2023-02-01T10:37:47;7.10;99.90
981;DHT22;479;53.514;9.994;2023-02-01T10:40:18;7.00;99.90
981;DHT22;479;53.514;9.994;2023-02-01T10:42:47;6.90;99.90
981;DHT22;479;53.514;9.994;2023-02-01T10:45:18;6.80;99.90
981;DHT22;479;53.514;9.994;2023-02-01T10:47:46;6.60;99.90
981;DHT22;479;53.514;9.994;2023-02-01T10:50:20;6.50;99.90
981;DHT22;479;53.514;9.994;2023-02-01T10:52:54;6.50;99.90
981;DHT22;479;53.514;9.994;2023-02-01T10:55:32;6.50;99.90
981;DHT22;479;53.514;9.994;2023-02-01T10:58:01;6.50;99.90
981;DHT22;479;53.514;9.994;2023-02-01T11:00:34;6.50;99.90
981;DHT22;479;53.514;9.994;2023-02-01T11:03:36;6.60;99.90
981;DHT22;479;53.514;9.994;2023-02-01T11:06:17;6.50;99.90
981;DHT22;479;53.514;9.994;2023-02-01T11:08:48;6.50;99.90
981;DHT22;479;53.514;9.994;2023-02-01T11:11:16;6.50;99.90
981;DHT22;479;53.514;9.994;2023-02-01T11:13:43;6.50;99.90
981;DHT22;479;53.514;9.994;2023-02-01T11:16:13;6.60;99.90
981;DHT22;479;53.514;9.994;2023-02-01T11:18:41;6.70;99.90
981;DHT22;479;53.514;9.994;2023-02-01T11:21:10;6.70;99.90
981;DHT22;479;53.514;9.994;2023-02-01T11:23:43;6.90;99.90
981;DHT22;479;53.514;9.994;2023-02-01T11:26:13;6.80;99.90
981;DHT22;479;53.514;9.994;2023-02-01T11:28:45;6.90;99.90
981;DHT22;479;53.514;9.994;2023-02-01T11:31:17;6.80;99.90
981;DHT22;479;53.514;9.994;2023-02-01T11:33:49;6.80;99.90
981;DHT22;479;53.514;9.994;2023-02-01T11:36:21;6.90;99.90
981;DHT22;479;53.514;9.994;2023-02-01T11:38:52;6.90;99.90
981;DHT22;479;53.514;9.994;2023-02-01T11:41:25;6.90;99.90
981;DHT22;479;53.514;9.994;2023-02-01T11:43:55;6.90;99.90
981;DHT22;479;53.514;9.994;2023-02-01T11:46:28;6.90;99.90
981;DHT22;479;53.514;9.994;2023-02-01T11:48:57;6.90;99.90
981;DHT22;479;53.514;9.994;2023-02-01T11:51:50;6.90;99.90
981;DHT22;479;53.514;9.994;2023-02-01T11:54:37;6.90;99.90
981;DHT22;479;53.514;9.994;2023-02-01T11:57:17;6.90;99.90
981;DHT22;479;53.514;9.994;2023-02-01T12:00:02;6.70;99.90
981;DHT22;479;53.514;9.994;2023-02-01T12:03:04;6.60;99.90
981;DHT22;479;53.514;9.994;2023-02-01T12:05:46;6.60;99.90
981;DHT22;479;53.514;9.994;2023-02-01T12:08:41;6.60;99.90
981;DHT22;479;53.514;9.994;2023-02-01T12:11:29;6.50;99.90
981;DHT22;479;53.514;9.994;2023-02-01T12:14:06;6.50;99.90
981;DHT22;479;53.514;9.994;2023-02-01T12:16:42;6.50;99.90
981;DHT22;479;53.514;9.994;2023-02-01T12:19:26;6.50;99.90
981;DHT22;479;53.514;9.994;2023-02-01T12:22:06;6.30;99.90
981;DHT22;479;53.514;9.994;2023-02-01T12:24:48;6.30;99.90
981;DHT22;479;53.514;9.994;2023-02-01T12:27:42;6.30;99.90
981;DHT22;479;53.514;9.994;2023-02-01T12:30:24;6.20;99.90
981;DHT22;479;53.514;9.994;2023-02-01T12:33:02;6.10;99.90
981;DHT22;479;53.514;9.994;2023-02-01T12:35:42;6.00;99.90
981;DHT22;479;53.514;9.994;2023-02-01T12:38:32;5.90;99.90
981;DHT22;479;53.514;9.994;2023-02-01T12:43:56;5.50;99.90
981;DHT22;479;53.514;9.994;2023-02-01T12:46:28;5.50;99.90
981;DHT22;479;53.514;9.994;2023-02-01T12:49:01;5.50;99.90
981;DHT22;479;53.514;9.994;2023-02-01T12:51:32;5.40;99.90
981;DHT22;479;53.514;9.994;2023-02-01T12:54:04;5.50;99.90
981;DHT22;479;53.514;9.994;2023-02-01T12:56:39;5.40;99.90
981;DHT22;479;53.514;9.994;2023-02-01T12:59:16;5.30;99.90
981;DHT22;479;53.514;9.994;2023-02-01T13:01:46;5.30;99.90
981;DHT22;479;53.514;9.994;2023-02-01T13:04:21;5.30;99.90
981;DHT22;479;53.514;9.994;2023-02-01T13:06:53;5.20;99.90
981;DHT22;479;53.514;9.994;2023-02-01T13:09:25;5.00;99.90
981;DHT22;479;53.514;9.994;2023-02-01T13:11:59;5.00;99.90
981;DHT22;479;53.514;9.994;2023-02-01T13:14:33;5.00;99.90
981;DHT22;479;53.514;9.994;2023-02-01T13:17:05;5.00;99.90
981;DHT22;479;53.514;9.994;2023-02-01T13:19:42;5.00;99.90
981;DHT22;479;53.514;9.994;2023-02-01T13:22:15;5.10;99.90
981;DHT22;479;53.514;9.994;2023-02-01T13:24:45;5.20;99.90
981;DHT22;479;53.514;9.994;2023-02-01T13:27:16;5.30;99.90
981;DHT22;479;53.514;9.994;2023-02-01T13:29:48;5.50;99.90
981;DHT22;479;53.514;9.994;2023-02-01T13:32:45;5.50;99.90
981;DHT22;479;53.514;9.994;2023-02-01T13:35:32;5.50;99.90
981;DHT22;479;53.514;9.994;2023-02-01T13:38:29;5.60;99.90
981;DHT22;479;53.514;9.994;2023-02-01T13:41:08;5.50;99.90
981;DHT22;479;53.514;9.994;2023-02-01T13:43:40;5.50;99.90
981;DHT22;479;53.514;9.994;2023-02-01T13:46:11;5.50;99.90
981;DHT22;479;53.514;9.994;2023-02-01T13:48:46;5.40;99.90
981;DHT22;479;53.514;9.994;2023-02-01T13:51:14;5.30;99.90
981;DHT22;479;53.514;9.994;2023-02-01T13:53:46;5.30;99.90
981;DHT22;479;53.514;9.994;2023-02-01T13:56:16;5.40;99.90
981;DHT22;479;53.514;9.994;2023-02-01T13:58:46;5.40;99.90
981;DHT22;479;53.514;9.994;2023-02-01T14:01:40;5.30;99.90
981;DHT22;479;53.514;9.994;2023-02-01T14:07:18;5.50;99.90
981;DHT22;479;53.514;9.994;2023-02-01T14:09:45;5.60;99.90
981;DHT22;479;53.514;9.994;2023-02-01T14:12:44;5.60;99.90
981;DHT22;479;53.514;9.994;2023-02-01T14:15:25;5.80;99.90
981;DHT22;479;53.514;9.994;2023-02-01T14:17:52;5.80;99.90
981;DHT22;479;53.514;9.994;2023-02-01T14:20:44;6.00;99.90
981;DHT22;479;53.514;9.994;2023-02-01T14:23:24;6.10;99.90
981;DHT22;479;53.514;9.994;2023-02-01T14:26:16;6.30;99.90
981;DHT22;479;53.514;9.994;2023-02-01T14:28:49;6.40;99.90
981;DHT22;479;53.514;9.994;2023-02-01T14:31:40;6.40;99.90
981;DHT22;479;53.514;9.994;2023-02-01T14:34:21;6.50;99.90
981;DHT22;479;53.514;9.994;2023-02-01T14:36:56;6.40;99.90
981;DHT22;479;53.514;9.994;2023-02-01T14:39:31;6.40;99.90
981;DHT22;479;53.514;9.994;2023-02-01T14:42:03;6.20;99.90
981;DHT22;479;53.514;9.994;2023-02-01T14:44:36;6.00;99.90
981;DHT22;479;53.514;9.994;2023-02-01T14:47:29;5.80;99.90
981;DHT22;479;53.514;9.994;2023-02-01T14:53:04;5.40;99.90
981;DHT22;479;53.514;9.994;2023-02-01T14:55:39;5.30;99.90
981;DHT22;479;53.514;9.994;2023-02-01T14:58:14;5.20;99.90
981;DHT22;479;53.514;9.994;2023-02-01T15:00:49;5.10;99.90
981;DHT22;479;53.514;9.994;2023-02-01T15:03:31;5.10;99.90
981;DHT22;479;53.514;9.994;2023-02-01T15:06:00;5.30;99.90
981;DHT22;479;53.514;9.994;2023-02-01T15:08:32;5.40;99.90
981;DHT22;479;53.514;9.994;2023-02-01T15:11:02;5.30;99.90
981;DHT22;479;53.514;9.994;2023-02-01T15:13:32;5.40;99.90
981;DHT22;479;53.514;9.994;2023-02-01T15:16:03;5.40;99.90
981;DHT22;479;53.514;9.994;2023-02-01T15:18:32;5.40;99.90
981;DHT22;479;53.514;9.994;2023-02-01T15:21:01;5.50;99.90
981;DHT22;479;53.514;9.994;2023-02-01T15:23:28;5.50;99.90
981;DHT22;479;53.514;9.994;2023-02-01T15:25:55;5.40;99.90
981;DHT22;479;53.514;9.994;2023-02-01T15:28:23;5.60;99.90
981;DHT22;479;53.514;9.994;2023-02-01T15:30:56;5.50;99.90
981;DHT22;479;53.514;9.994;2023-02-01T15:33:23;5.60;99.90
981;DHT22;479;53.514;9.994;2023-02-01T15:35:52;5.50;99.90
981;DHT22;479;53.514;9.994;2023-02-01T15:38:33;5.40;99.90
981;DHT22;479;53.514;9.994;2023-02-01T15:41:03;5.50;99.90
981;DHT22;479;53.514;9.994;2023-02-01T15:43:32;5.50;99.90
981;DHT22;479;53.514;9.994;2023-02-01T15:46:02;5.50;99.90
981;DHT22;479;53.514;9.994;2023-02-01T15:48:35;5.40;99.90
981;DHT22;479;53.514;9.994;2023-02-01T15:51:05;5.30;99.90
981;DHT22;479;53.514;9.994;2023-02-01T15:53:32;5.40;99.90
981;DHT22;479;53.514;9.994;2023-02-01T15:56:01;5.50;99.90
981;DHT22;479;53.514;9.994;2023-02-01T15:58:30;5.50;99.90
981;DHT22;479;53.514;9.994;2023-02-01T16:01:00;5.50;99.90
981;DHT22;479;53.514;9.994;2023-02-01T16:03:35;5.30;99.90
981;DHT22;479;53.514;9.994;2023-02-01T16:06:05;5.20;99.90
981;DHT22;479;53.514;9.994;2023-02-01T16:08:33;5.30;99.90
981;DHT22;479;53.514;9.994;2023-02-01T16:11:19;5.20;99.90
981;DHT22;479;53.514;9.994;2023-02-01T16:13:47;5.20;99.90
981;DHT22;479;53.514;9.994;2023-02-01T16:16:14;5.30;99.90
981;DHT22;479;53.514;9.994;2023-02-01T16:18:41;5.20;99.90
981;DHT22;479;53.514;9.994;2023-02-01T16:21:11;5.30;99.90
981;DHT22;479;53.514;9.994;2023-02-01T16:23:38;5.30;99.90
981;DHT22;479;53.514;9.994;2023-02-01T16:26:05;5.50;99.90
981;DHT22;479;53.514;9.994;2023-02-01T16:28:32;5.50;99.90
981;DHT22;479;53.514;9.994;2023-02-01T16:30:59;5.50;99.90
981;DHT22;479;53.514;9.994;2023-02-01T16:33:26;5.50;99.90
981;DHT22;479;53.514;9.994;2023-02-01T16:35:56;5.50;99.90
981;DHT22;479;53.514;9.994;2023-02-01T16:38:26;5.60;99.90
981;DHT22;479;53.514;9.994;2023-02-01T16:40:53;5.50;99.90
981;DHT22;479;53.514;9.994;2023-02-01T16:43:24;5.60;99.90
981;DHT22;479;53.514;9.994;2023-02-01T16:45:54;5.60;99.90
981;DHT22;479;53.514;9.994;2023-02-01T16:48:23;5.60;99.90
981;DHT22;479;53.514;9.994;2023-02-01T16:50:52;5.70;99.90
981;DHT22;479;53.514;9.994;2023-02-01T16:53:20;5.70;99.90
981;DHT22;479;53.514;9.994;2023-02-01T16:55:49;5.80;99.90
981;DHT22;479;53.514;9.994;2023-02-01T16:58:18;5.80;99.90
981;DHT22;479;53.514;9.994;2023-02-01T17:00:45;5.70;99.90
981;DHT22;479;53.514;9.994;2023-02-01T17:03:14;5.70;99.90
981;DHT22;479;53.514;9.994;2023-02-01T17:05:44;5.90;99.90
981;DHT22;479;53.514;9.994;2023-02-01T17:08:14;5.90;99.90
981;DHT22;479;53.514;9.994;2023-02-01T17:10:44;6.00;99.90
981;DHT22;479;53.514;9.994;2023-02-01T17:13:15;6.20;99.90
981;DHT22;479;53.514;9.994;2023-02-01T17:15:47;6.20;99.90
981;DHT22;479;53.514;9.994;2023-02-01T17:18:16;6.10;99.90
981;DHT22;479;53.514;9.994;2023-02-01T17:20:43;6.10;99.90
981;DHT22;479;53.514;9.994;2023-02-01T17:23:13;6.10;99.90
981;DHT22;479;53.514;9.994;2023-02-01T17:25:40;6.10;99.90
981;DHT22;479;53.514;9.994;2023-02-01T17:28:07;6.20;99.90
981;DHT22;479;53.514;9.994;2023-02-01T17:30:37;6.20;99.90
981;DHT22;479;53.514;9.994;2023-02-01T17:33:15;6.40;99.90